Pagrindinis puslapis
METAR-TAF:

METAR-TAF

Oro uostai :

Ilam, Iranas

platuma: 33-35-09N, ilguma: 046-24-20E, Aukštis: 1334 m

Dabartinis oras

Ataskaita buvo paskelbta 22 minutes, ne 21:00 UTC
Vėjas 4 kt iš Rytų
Temperatūra 23°C
Drėgmė 16%
Slėgis 1012 hPa
Matomumas 10 km arba daugiau
nėra debesų žemiau 1500 m ir nėra kamuolinių lietaus debesų

METAR: OICI 172100Z 10004KT CAVOK 23/M04 Q1012

Laikas: 01:52 (21:22 UTC)

Prognozė

Ataskaita buvo paskelbta 4 valandos ir 12 minutes, ne 17:10 UTC
Prognozė galioja nuo 17 metu 18 UTC su 18 metu 24 UTC
Vėjas 10 kt iš Vakarų/Šiaurės Vakarų
Matomumas: 8000 m
Laikinai
nuo 18 metu 09 UTC su 18 metu 18 UTC
Vėjas 18 kt iš Vakarų/Pietvakarių

TAF: OICI 171710Z 1718/1824 30010KT 8000 NSC TEMPO 1809/1818 24018KT

Orai ataskaitas ir orų prognozės (METAR, TAF).

turimą stotys yra geltonos ir raudonos taškus žemėlapyje.

Perkelti pele per norėdami pamatyti stoties vardą.

Tada spustelėkite, norėdami matyti oro stebėjimo ir prognozės.

Norėdami pakeisti žemėlapį: spustelėkite ant žalios mygtukų su juodo kryžiaus žemyn,; žalią mygtuką su brūkšneliu, jei norite nutolinti; arba žalių rodyklių gretimoms žemėlapius.


METAR-TAF: